Mills, Nebraska
Current Conditions -  °F | °C
As of 2:53 PM on Sunday 23 Nov 2014 (Local Time) from KICR Reporting Station
Overcast Overcast  
Wind Chill: 35°   Ceiling: 5500
Heat Index: 45°   Visibility: 10mi
Dew Point: 24°   Wind: 29mph
Humidity: 44%   Direction: 310°NW
Pressure: 29.61"   Gusts: 37mph
Location:  42.94°N, 99.44°W
Report Text: KICR 232053Z AUTO 31025G32KT 10SM OVC055 07/M04 A2961 RMK AO2 PK WND 31039/2015 SLP035 T00721044 56015
Loading
Personal Weather Stations






























Interactive Weather Map New forecast layout! Learn more

10-Day Weather Forecast

Advertisements
Track Severe Weather on mobile